createdAt,value
2018-09-15T00:01:10.926Z,5.97
2018-09-15T00:03:15.102Z,4.27
2018-09-15T00:05:19.749Z,9.03
2018-09-15T00:07:23.927Z,6.10
2018-09-15T00:09:28.223Z,4.10
2018-09-15T00:11:32.537Z,3.17
2018-09-15T00:13:36.678Z,2.83
2018-09-15T00:15:40.940Z,4.57
2018-09-15T00:17:46.921Z,2.73
2018-09-15T00:19:51.186Z,5.60
2018-09-15T00:21:55.495Z,4.73
2018-09-15T00:23:59.724Z,4.23
2018-09-15T00:26:04.016Z,6.63
2018-09-15T00:28:08.488Z,4.97
2018-09-15T00:30:12.693Z,4.03
2018-09-15T00:32:16.932Z,5.30
2018-09-15T00:34:21.150Z,5.03
2018-09-15T00:36:25.713Z,4.93
2018-09-15T00:38:30.032Z,4.83
2018-09-15T00:40:34.264Z,3.43
2018-09-15T00:42:38.487Z,2.00
2018-09-15T00:44:42.663Z,2.17
2018-09-15T00:46:46.839Z,4.90
2018-09-15T00:48:51.115Z,4.93
2018-09-15T00:50:55.331Z,3.10
2018-09-15T00:52:59.484Z,2.67
2018-09-15T00:55:03.764Z,5.47
2018-09-15T00:57:07.498Z,3.67
2018-09-15T00:59:11.729Z,4.47
2018-09-15T01:01:15.925Z,4.53
2018-09-15T01:03:20.295Z,5.43
2018-09-15T01:05:24.452Z,4.53
2018-09-15T01:07:28.627Z,3.80
2018-09-15T01:09:32.879Z,4.47
2018-09-15T01:11:37.120Z,5.80
2018-09-15T01:13:41.394Z,6.00
2018-09-15T01:15:45.643Z,3.00
2018-09-15T01:17:49.818Z,4.77
2018-09-15T01:19:54.040Z,4.47
2018-09-15T01:21:58.242Z,4.63
2018-09-15T01:24:02.387Z,3.90
2018-09-15T01:26:06.726Z,3.03
2018-09-15T01:28:10.855Z,3.70
2018-09-15T01:30:15.192Z,5.27
2018-09-15T01:32:19.433Z,3.30
2018-09-15T01:34:23.569Z,3.47
2018-09-15T01:36:28.560Z,6.33
2018-09-15T01:38:32.807Z,11.57
2018-09-15T01:40:37.000Z,7.30
2018-09-15T01:42:41.161Z,4.50
2018-09-15T01:44:45.370Z,6.50
2018-09-15T01:47:18.759Z,4.97
2018-09-15T01:49:23.899Z,9.73
2018-09-15T01:51:28.102Z,4.20
2018-09-15T01:53:32.338Z,5.97
2018-09-15T01:55:36.505Z,3.33
2018-09-15T01:57:40.840Z,6.63
2018-09-15T01:59:44.990Z,2.10
2018-09-15T02:01:49.248Z,4.83
2018-09-15T02:03:53.417Z,4.60
2018-09-15T02:05:58.041Z,5.57
2018-09-15T02:08:02.244Z,5.07
2018-09-15T02:10:06.869Z,5.57
2018-09-15T02:12:11.115Z,5.17
2018-09-15T02:14:15.269Z,7.30
2018-09-15T02:16:19.402Z,3.33
2018-09-15T02:18:23.590Z,4.47
2018-09-15T02:20:27.858Z,2.83
2018-09-15T02:22:32.065Z,3.60
2018-09-15T02:24:36.607Z,4.60
2018-09-15T02:26:40.867Z,9.80
2018-09-15T02:28:45.026Z,4.43
2018-09-15T02:30:49.287Z,4.80
2018-09-15T02:32:53.523Z,4.40
2018-09-15T02:34:57.749Z,7.97
2018-09-15T02:37:01.974Z,4.50
2018-09-15T02:39:09.001Z,5.47
2018-09-15T02:41:15.258Z,8.77
2018-09-15T02:43:19.538Z,5.10
2018-09-15T02:45:23.764Z,6.73
2018-09-15T02:47:28.103Z,3.97
2018-09-15T02:49:32.469Z,4.47
2018-09-15T02:51:37.050Z,6.67
2018-09-15T02:53:41.908Z,5.10
2018-09-15T02:55:47.063Z,4.50
2018-09-15T02:57:52.001Z,9.20
2018-09-15T02:59:56.546Z,5.00
2018-09-15T03:02:01.407Z,5.23
2018-09-15T03:04:06.304Z,7.13
2018-09-15T03:06:11.359Z,5.87
2018-09-15T03:08:16.200Z,7.40
2018-09-15T03:10:20.982Z,6.00
2018-09-15T03:12:25.778Z,6.60
2018-09-15T03:14:31.050Z,5.50
2018-09-15T03:16:35.256Z,8.80
2018-09-15T03:18:39.426Z,5.23
2018-09-15T03:20:43.650Z,8.37
2018-09-15T03:22:47.950Z,6.77
2018-09-15T03:24:52.181Z,5.80
2018-09-15T03:26:56.443Z,7.87
2018-09-15T03:29:00.689Z,9.43
2018-09-15T03:31:04.952Z,6.40
2018-09-15T03:33:09.139Z,5.83
2018-09-15T03:35:13.372Z,6.90
2018-09-15T03:37:17.553Z,5.17
2018-09-15T03:39:21.687Z,7.03
2018-09-15T03:41:26.185Z,9.53
2018-09-15T03:43:30.318Z,12.63
2018-09-15T03:45:34.568Z,13.97
2018-09-15T03:47:39.022Z,5.87
2018-09-15T03:49:43.276Z,6.73
2018-09-15T03:51:47.490Z,7.33
2018-09-15T03:53:51.818Z,6.97
2018-09-15T03:55:56.051Z,8.33
2018-09-15T03:58:00.257Z,10.50
2018-09-15T04:00:05.070Z,5.43
2018-09-15T04:02:09.274Z,9.20
2018-09-15T04:04:13.481Z,6.30
2018-09-15T04:06:17.703Z,8.50
2018-09-15T04:08:22.269Z,7.40
2018-09-15T04:10:26.439Z,8.57
2018-09-15T04:12:30.751Z,6.77
2018-09-15T04:14:35.006Z,5.47
2018-09-15T04:16:39.213Z,8.07
2018-09-15T04:18:43.397Z,7.47
2018-09-15T04:20:48.670Z,4.20
2018-09-15T04:22:52.874Z,9.00
2018-09-15T04:24:57.082Z,9.93
2018-09-15T04:27:01.242Z,6.93
2018-09-15T04:29:05.566Z,12.63
2018-09-15T04:31:09.802Z,4.43
2018-09-15T04:33:14.091Z,6.03
2018-09-15T04:35:19.290Z,7.83
2018-09-15T04:37:23.375Z,5.27
2018-09-15T04:39:27.613Z,5.73
2018-09-15T04:41:31.841Z,4.70
2018-09-15T04:43:36.066Z,7.37
2018-09-15T04:45:40.595Z,9.30
2018-09-15T04:47:44.839Z,7.93
2018-09-15T04:49:49.042Z,7.53
2018-09-15T04:51:53.261Z,7.13
2018-09-15T04:53:57.460Z,6.23
2018-09-15T04:56:01.638Z,6.43
2018-09-15T04:58:05.883Z,4.00
2018-09-15T05:00:10.143Z,7.33
2018-09-15T05:02:14.315Z,7.30
2018-09-15T05:04:18.470Z,6.83
2018-09-15T05:06:22.791Z,6.93
2018-09-15T05:08:27.112Z,6.30
2018-09-15T05:10:31.298Z,8.97
2018-09-15T05:12:35.581Z,4.70
2018-09-15T05:14:39.751Z,8.40
2018-09-15T05:16:43.962Z,7.63
2018-09-15T05:18:48.266Z,6.17
2018-09-15T05:20:52.823Z,6.47
2018-09-15T05:22:57.310Z,6.87
2018-09-15T05:25:01.592Z,6.97
2018-09-15T05:27:06.648Z,9.20
2018-09-15T05:29:11.493Z,4.63
2018-09-15T05:31:16.089Z,6.40
2018-09-15T05:33:20.274Z,7.97
2018-09-15T05:35:24.488Z,5.97
2018-09-15T05:37:28.730Z,6.10
2018-09-15T05:39:32.977Z,6.77
2018-09-15T05:41:37.234Z,5.90
2018-09-15T05:43:41.427Z,6.07
2018-09-15T05:45:45.675Z,6.03
2018-09-15T05:47:49.921Z,6.70
2018-09-15T05:49:54.100Z,6.17
2018-09-15T05:51:58.349Z,7.63
2018-09-15T05:54:02.564Z,5.00
2018-09-15T05:56:06.842Z,9.43
2018-09-15T05:58:11.043Z,7.63
2018-09-15T06:00:15.409Z,7.03
2018-09-15T06:02:19.636Z,5.33
2018-09-15T06:04:23.818Z,7.67
2018-09-15T06:06:28.157Z,9.97
2018-09-15T06:08:32.356Z,6.33
2018-09-15T06:10:36.514Z,10.03
2018-09-15T06:12:40.734Z,6.63
2018-09-15T06:14:44.911Z,10.77
2018-09-15T06:16:49.139Z,5.93
2018-09-15T06:18:53.439Z,9.33
2018-09-15T06:20:57.708Z,8.10
2018-09-15T06:23:01.898Z,9.53
2018-09-15T06:25:06.626Z,7.50
2018-09-15T06:27:10.802Z,6.53
2018-09-15T06:29:15.041Z,7.80
2018-09-15T06:31:19.227Z,10.07
2018-09-15T06:33:23.425Z,8.90
2018-09-15T06:35:27.676Z,8.93
2018-09-15T06:37:31.870Z,9.83
2018-09-15T06:39:36.413Z,8.53
2018-09-15T06:41:40.750Z,9.80
2018-09-15T06:43:45.052Z,7.93
2018-09-15T06:45:49.452Z,10.07
2018-09-15T06:47:53.521Z,11.40
2018-09-15T06:49:57.695Z,9.53
2018-09-15T06:52:01.973Z,9.77
2018-09-15T06:54:06.194Z,11.07
2018-09-15T06:56:10.390Z,7.77
2018-09-15T06:58:14.850Z,9.17
2018-09-15T07:00:19.009Z,8.50
2018-09-15T07:02:23.175Z,6.20
2018-09-15T07:04:27.337Z,6.30
2018-09-15T07:06:31.655Z,10.43
2018-09-15T07:08:35.859Z,8.03
2018-09-15T07:10:40.035Z,8.67
2018-09-15T07:12:44.251Z,13.77
2018-09-15T07:14:48.524Z,10.17
2018-09-15T07:16:52.724Z,12.33
2018-09-15T07:18:56.926Z,6.83
2018-09-15T07:21:01.171Z,10.03
2018-09-15T07:23:05.575Z,7.63
2018-09-15T07:25:10.206Z,8.63
2018-09-15T07:27:14.404Z,7.13
2018-09-15T07:29:18.646Z,11.90
2018-09-15T07:31:22.845Z,10.33
2018-09-15T07:33:27.115Z,8.00
2018-09-15T07:35:31.315Z,9.90
2018-09-15T07:37:35.545Z,8.33
2018-09-15T07:39:39.733Z,6.57
2018-09-15T07:41:43.980Z,9.97
2018-09-15T07:43:48.181Z,9.23
2018-09-15T07:45:52.423Z,13.03
2018-09-15T07:47:56.656Z,9.90
2018-09-15T07:50:00.802Z,11.73
2018-09-15T07:52:04.954Z,8.57
2018-09-15T07:54:09.431Z,8.93
2018-09-15T07:56:13.602Z,11.10
2018-09-15T07:58:17.847Z,9.87
2018-09-15T08:00:22.162Z,12.00
2018-09-15T08:02:26.339Z,11.77
2018-09-15T08:04:30.551Z,11.43
2018-09-15T08:06:34.830Z,9.97
2018-09-15T08:08:39.046Z,11.97
2018-09-15T08:10:43.220Z,12.20
2018-09-15T08:12:48.376Z,13.20
2018-09-15T08:14:52.683Z,12.53
2018-09-15T08:16:56.917Z,9.40
2018-09-15T08:19:01.199Z,8.63
2018-09-15T08:21:05.518Z,12.17
2018-09-15T08:23:09.757Z,13.80
2018-09-15T08:25:13.980Z,10.10
2018-09-15T08:27:18.163Z,6.63
2018-09-15T08:29:22.511Z,6.77
2018-09-15T08:31:26.710Z,9.20
2018-09-15T08:33:30.929Z,8.60
2018-09-15T08:35:35.133Z,8.87
2018-09-15T08:37:39.361Z,7.87
2018-09-15T08:39:43.555Z,13.73
2018-09-15T08:41:47.827Z,10.20
2018-09-15T08:43:52.022Z,11.73
2018-09-15T08:45:56.213Z,12.63
2018-09-15T08:48:00.466Z,8.80
2018-09-15T08:50:04.927Z,10.03
2018-09-15T08:52:09.135Z,7.60
2018-09-15T08:54:13.992Z,7.83
2018-09-15T08:56:18.291Z,10.47
2018-09-15T08:58:22.625Z,10.60
2018-09-15T09:00:27.044Z,11.47
2018-09-15T09:02:31.234Z,7.10
2018-09-15T09:04:35.726Z,7.77
2018-09-15T09:06:39.919Z,7.20
2018-09-15T09:08:44.165Z,8.53
2018-09-15T09:10:48.369Z,9.37
2018-09-15T09:12:52.751Z,10.10
2018-09-15T09:14:56.962Z,8.57
2018-09-15T09:17:01.166Z,10.43
2018-09-15T09:19:05.383Z,10.53
2018-09-15T09:21:09.578Z,10.57
2018-09-15T09:23:13.783Z,4.57
2018-09-15T09:25:18.021Z,9.87
2018-09-15T09:27:22.191Z,7.83
2018-09-15T09:29:26.401Z,10.57
2018-09-15T09:31:30.638Z,10.60
2018-09-15T09:33:34.793Z,8.17
2018-09-15T09:35:38.947Z,10.73
2018-09-15T09:37:43.122Z,10.53
2018-09-15T09:39:47.378Z,6.70
2018-09-15T09:41:51.598Z,7.70
2018-09-15T09:43:56.020Z,6.30
2018-09-15T09:46:00.253Z,7.27
2018-09-15T09:48:04.491Z,4.43
2018-09-15T09:50:08.730Z,7.00
2018-09-15T09:52:12.907Z,10.30
2018-09-15T09:54:17.187Z,6.00
2018-09-15T09:56:21.380Z,7.80
2018-09-15T09:58:25.556Z,6.00
2018-09-15T10:00:34.951Z,6.30
2018-09-15T10:02:39.213Z,6.30
2018-09-15T10:04:43.394Z,6.07
2018-09-15T10:06:47.577Z,7.03
2018-09-15T10:08:52.067Z,6.87
2018-09-15T10:10:56.228Z,6.63
2018-09-15T10:13:00.889Z,6.57
2018-09-15T10:15:05.155Z,6.70
2018-09-15T10:17:09.412Z,7.70
2018-09-15T10:19:13.703Z,6.57
2018-09-15T10:21:17.908Z,5.83
2018-09-15T10:23:22.494Z,6.33
2018-09-15T10:25:26.712Z,9.77
2018-09-15T10:27:30.907Z,5.30
2018-09-15T10:29:35.131Z,7.93
2018-09-15T10:31:39.318Z,3.90
2018-09-15T10:33:43.937Z,9.70
2018-09-15T10:35:48.115Z,6.43
2018-09-15T10:37:52.506Z,6.53
2018-09-15T10:39:56.693Z,4.43
2018-09-15T10:42:00.927Z,3.33
2018-09-15T10:44:05.329Z,5.07
2018-09-15T10:46:09.538Z,6.63
2018-09-15T10:48:13.872Z,5.30
2018-09-15T10:50:18.011Z,5.20
2018-09-15T10:52:22.152Z,6.40
2018-09-15T10:54:26.416Z,7.87
2018-09-15T10:56:30.665Z,7.90
2018-09-15T10:58:34.892Z,5.80
2018-09-15T11:00:39.122Z,6.53
2018-09-15T11:02:43.379Z,3.33
2018-09-15T11:04:47.850Z,4.97
2018-09-15T11:06:52.233Z,3.57
2018-09-15T11:08:56.376Z,5.13
2018-09-15T11:11:00.594Z,4.90
2018-09-15T11:13:05.101Z,6.47
2018-09-15T11:15:09.262Z,4.47
2018-09-15T11:17:13.500Z,3.53
2018-09-15T11:19:17.737Z,5.10
2018-09-15T11:21:21.957Z,4.03
2018-09-15T11:23:26.251Z,3.17
2018-09-15T11:25:30.473Z,3.70
2018-09-15T11:27:34.644Z,5.23
2018-09-15T11:29:38.820Z,3.33
2018-09-15T11:31:43.068Z,5.30
2018-09-15T11:33:47.243Z,4.57
2018-09-15T11:35:51.547Z,3.90
2018-09-15T11:37:55.895Z,5.33
2018-09-15T11:40:00.088Z,5.40
2018-09-15T11:42:04.257Z,2.60
2018-09-15T11:44:08.959Z,5.83
2018-09-15T11:46:13.187Z,6.97
2018-09-15T11:48:17.692Z,2.20
2018-09-15T11:50:21.866Z,6.07
2018-09-15T11:52:26.083Z,4.03
2018-09-15T11:54:30.425Z,5.07
2018-09-15T11:56:34.623Z,5.13
2018-09-15T11:58:38.828Z,5.53
2018-09-15T12:00:47.785Z,8.20
2018-09-15T12:02:52.059Z,5.33
2018-09-15T12:04:57.102Z,5.00
2018-09-15T12:07:01.305Z,5.30
2018-09-15T12:09:07.498Z,8.43
2018-09-15T12:11:11.669Z,6.83
2018-09-15T12:13:15.980Z,7.43
2018-09-15T12:15:20.475Z,6.40
2018-09-15T12:17:24.755Z,9.50
2018-09-15T12:19:29.033Z,6.60
2018-09-15T12:21:33.271Z,4.30
2018-09-15T12:23:37.487Z,4.67
2018-09-15T12:25:42.148Z,4.60
2018-09-15T12:27:46.436Z,8.37
2018-09-15T12:29:50.568Z,4.70
2018-09-15T12:31:54.833Z,6.80
2018-09-15T12:33:59.023Z,3.17
2018-09-15T12:36:03.204Z,4.37
2018-09-15T12:38:07.408Z,4.90
2018-09-15T12:40:11.604Z,6.53
2018-09-15T12:42:15.809Z,4.57
2018-09-15T12:44:20.039Z,4.07
2018-09-15T12:46:24.228Z,4.40
2018-09-15T12:48:28.513Z,4.47
2018-09-15T12:50:32.656Z,5.03
2018-09-15T12:52:37.229Z,5.83
2018-09-15T12:54:41.434Z,2.70
2018-09-15T12:56:45.655Z,5.60
2018-09-15T12:58:49.902Z,3.80
2018-09-15T13:00:54.177Z,3.93
2018-09-15T13:02:58.402Z,4.07
2018-09-15T13:05:02.619Z,4.20
2018-09-15T13:07:06.913Z,5.47
2018-09-15T13:09:12.899Z,2.50
2018-09-15T13:11:17.135Z,4.33
2018-09-15T13:13:21.395Z,3.13
2018-09-15T13:15:25.693Z,3.77
2018-09-15T13:17:29.905Z,3.07
2018-09-15T13:19:34.117Z,4.47
2018-09-15T13:21:38.401Z,4.73
2018-09-15T13:23:42.625Z,5.93
2018-09-15T13:25:46.714Z,3.30
2018-09-15T13:27:50.905Z,2.20
2018-09-15T13:29:55.227Z,2.10
2018-09-15T13:31:59.460Z,5.20
2018-09-15T13:34:03.769Z,5.13
2018-09-15T13:36:07.973Z,3.73
2018-09-15T13:38:12.188Z,6.43
2018-09-15T13:40:16.430Z,3.77
2018-09-15T13:42:20.735Z,4.83
2018-09-15T13:44:24.893Z,4.30
2018-09-15T13:46:29.114Z,5.03
2018-09-15T13:48:33.286Z,2.50
2018-09-15T13:50:37.423Z,5.73
2018-09-15T13:52:41.884Z,7.63
2018-09-15T13:54:46.150Z,2.90
2018-09-15T13:56:50.304Z,4.07
2018-09-15T13:58:54.542Z,5.93
2018-09-15T14:00:58.711Z,6.47
2018-09-15T14:03:02.995Z,6.10
2018-09-15T14:05:07.227Z,2.60
2018-09-15T14:07:11.677Z,2.70
2018-09-15T14:09:15.910Z,2.10
2018-09-15T14:11:20.111Z,3.53
2018-09-15T14:13:26.232Z,4.17
2018-09-15T14:15:30.503Z,4.53
2018-09-15T14:17:35.032Z,3.00
2018-09-15T14:19:39.347Z,3.47
2018-09-15T14:21:43.531Z,4.07
2018-09-15T14:23:47.734Z,1.97
2018-09-15T14:25:51.871Z,2.00
2018-09-15T14:27:56.367Z,1.77
2018-09-15T14:30:00.588Z,2.90
2018-09-15T14:32:04.740Z,2.53
2018-09-15T14:34:08.899Z,5.10
2018-09-15T14:36:13.130Z,3.20
2018-09-15T14:38:17.363Z,5.00
2018-09-15T14:40:21.599Z,4.40
2018-09-15T14:42:25.809Z,3.20
2018-09-15T14:44:30.019Z,3.10
2018-09-15T14:46:34.289Z,2.30
2018-09-15T14:48:38.576Z,4.53
2018-09-15T14:50:42.748Z,4.13
2018-09-15T14:52:46.998Z,4.27
2018-09-15T14:54:51.244Z,2.43
2018-09-15T14:56:55.622Z,1.67
2018-09-15T14:58:59.736Z,3.67
2018-09-15T15:01:03.935Z,2.17
2018-09-15T15:03:09.361Z,2.97
2018-09-15T15:05:13.510Z,2.63
2018-09-15T15:07:17.698Z,1.30
2018-09-15T15:09:21.845Z,2.43
2018-09-15T15:11:25.974Z,3.47
2018-09-15T15:13:30.389Z,1.90
2018-09-15T15:15:34.617Z,2.40
2018-09-15T15:17:38.929Z,2.70
2018-09-15T15:19:43.222Z,3.27
2018-09-15T15:21:47.438Z,3.57
2018-09-15T15:23:51.638Z,3.60
2018-09-15T15:25:55.895Z,2.90
2018-09-15T15:28:00.110Z,2.93
2018-09-15T15:30:04.453Z,2.30
2018-09-15T15:32:08.654Z,4.40
2018-09-15T15:34:12.838Z,3.57
2018-09-15T15:36:17.019Z,1.70
2018-09-15T15:38:21.227Z,3.53
2018-09-15T15:40:25.395Z,3.10
2018-09-15T15:42:29.618Z,2.07
2018-09-15T15:44:33.820Z,2.50
2018-09-15T15:46:38.086Z,4.03
2018-09-15T15:48:42.301Z,1.73
2018-09-15T15:50:46.543Z,4.43
2018-09-15T15:52:50.698Z,2.80
2018-09-15T15:54:54.900Z,3.60
2018-09-15T15:56:59.106Z,3.40
2018-09-15T15:59:06.888Z,3.07
2018-09-15T16:01:13.356Z,4.47
2018-09-15T16:03:17.662Z,7.23
2018-09-15T16:05:21.835Z,5.70
2018-09-15T16:07:26.032Z,3.27
2018-09-15T16:09:30.178Z,3.93
2018-09-15T16:11:34.368Z,4.97
2018-09-15T16:13:38.635Z,4.33
2018-09-15T16:15:42.861Z,4.60
2018-09-15T16:17:47.074Z,4.67
2018-09-15T16:19:51.329Z,3.03
2018-09-15T16:21:55.523Z,3.07
2018-09-15T16:23:59.708Z,6.00
2018-09-15T16:26:03.911Z,2.60
2018-09-15T16:28:08.231Z,3.57
2018-09-15T16:30:12.403Z,6.03
2018-09-15T16:32:16.644Z,3.90
2018-09-15T16:34:20.836Z,5.60
2018-09-15T16:36:25.384Z,4.17
2018-09-15T16:38:29.692Z,4.43
2018-09-15T16:40:34.123Z,4.73
2018-09-15T16:42:38.489Z,5.20
2018-09-15T16:44:42.656Z,5.00
2018-09-15T16:46:46.832Z,2.37
2018-09-15T16:48:51.006Z,3.53
2018-09-15T16:50:55.267Z,2.20
2018-09-15T16:52:59.478Z,7.80
2018-09-15T16:55:03.607Z,6.07
2018-09-15T16:57:07.922Z,5.87
2018-09-15T16:59:12.092Z,3.20
2018-09-15T17:01:16.302Z,4.07
2018-09-15T17:03:20.520Z,4.47
2018-09-15T17:05:24.788Z,3.30
2018-09-15T17:07:28.959Z,5.07
2018-09-15T17:09:33.165Z,9.47
2018-09-15T17:11:37.753Z,5.57
2018-09-15T17:13:41.927Z,4.20
2018-09-15T17:15:46.212Z,3.97
2018-09-15T17:17:50.458Z,6.20
2018-09-15T17:19:54.786Z,5.50
2018-09-15T17:21:59.022Z,3.70
2018-09-15T17:24:03.192Z,4.27
2018-09-15T17:26:07.411Z,3.67
2018-09-15T17:28:11.655Z,4.43
2018-09-15T17:30:19.961Z,4.93
2018-09-15T17:32:24.269Z,6.80
2018-09-15T17:34:28.474Z,3.70
2018-09-15T17:36:32.847Z,4.77
2018-09-15T17:38:37.061Z,7.13
2018-09-15T17:40:42.216Z,4.87
2018-09-15T17:42:47.445Z,4.63
2018-09-15T17:44:51.622Z,5.53
2018-09-15T17:46:56.841Z,2.47
2018-09-15T17:49:01.034Z,1.63
2018-09-15T17:51:05.454Z,4.37
2018-09-15T17:53:09.685Z,5.03
2018-09-15T17:55:13.857Z,4.00
2018-09-15T17:57:18.281Z,3.77
2018-09-15T17:59:22.425Z,4.10
2018-09-15T18:01:26.620Z,3.13
2018-09-15T18:03:30.931Z,4.20
2018-09-15T18:05:35.139Z,1.80
2018-09-15T18:07:39.346Z,4.40
2018-09-15T18:09:44.116Z,3.63
2018-09-15T18:11:48.222Z,4.27
2018-09-15T18:14:00.350Z,3.83
2018-09-15T18:16:04.891Z,4.27
2018-09-15T18:18:09.565Z,3.23
2018-09-15T18:20:14.769Z,4.27
2018-09-15T18:22:19.394Z,5.47
2018-09-15T18:24:23.997Z,2.97
2018-09-15T18:26:28.790Z,1.60
2018-09-15T18:28:32.927Z,2.70
2018-09-15T18:30:37.137Z,10.83
2018-09-15T18:32:41.378Z,2.90
2018-09-15T18:34:45.560Z,6.80
2018-09-15T18:36:49.873Z,4.23
2018-09-15T18:38:54.016Z,2.73
2018-09-15T18:40:58.215Z,3.97
2018-09-15T18:43:02.898Z,3.53
2018-09-15T18:45:07.199Z,3.80
2018-09-15T18:47:11.488Z,2.63
2018-09-15T18:49:15.766Z,2.50
2018-09-15T18:51:20.078Z,2.93
2018-09-15T18:53:24.289Z,3.43
2018-09-15T18:55:28.790Z,3.30
2018-09-15T18:57:32.982Z,2.80
2018-09-15T18:59:37.613Z,3.00
2018-09-15T19:01:41.929Z,5.27
2018-09-15T19:03:46.078Z,5.10
2018-09-15T19:05:50.410Z,3.67
2018-09-15T19:07:54.690Z,5.07
2018-09-15T19:09:59.059Z,5.00
2018-09-15T19:12:03.227Z,3.00
2018-09-15T19:14:07.498Z,9.53
2018-09-15T19:16:12.071Z,8.33
2018-09-15T19:18:16.353Z,5.33
2018-09-15T19:20:20.545Z,6.43
2018-09-15T19:22:24.789Z,4.83
2018-09-15T19:24:29.030Z,6.00
2018-09-15T19:26:33.315Z,4.03
2018-09-15T19:28:37.555Z,3.77
2018-09-15T19:30:41.706Z,2.07
2018-09-15T19:32:46.028Z,3.80
2018-09-15T19:34:50.178Z,5.17
2018-09-15T19:36:54.686Z,5.40
2018-09-15T19:38:58.911Z,2.37
2018-09-15T19:41:03.166Z,4.27
2018-09-15T19:43:07.577Z,6.17
2018-09-15T19:45:11.836Z,7.43
2018-09-15T19:47:16.036Z,5.17
2018-09-15T19:49:20.158Z,6.40
2018-09-15T19:51:24.385Z,6.07
2018-09-15T19:53:28.716Z,3.53
2018-09-15T19:55:32.921Z,2.73
2018-09-15T19:57:37.302Z,6.57
2018-09-15T19:59:41.495Z,2.50
2018-09-15T20:01:46.631Z,8.07
2018-09-15T20:03:50.823Z,9.23
2018-09-15T20:05:54.999Z,5.03
2018-09-15T20:07:59.189Z,5.63
2018-09-15T20:10:03.458Z,6.03
2018-09-15T20:12:07.687Z,3.53
2018-09-15T20:14:11.871Z,3.47
2018-09-15T20:16:14.630Z,1.90
2018-09-15T20:18:17.312Z,3.23
2018-09-15T20:20:20.588Z,4.73
2018-09-15T20:22:24.835Z,4.37
2018-09-15T20:24:29.042Z,5.70
2018-09-15T20:26:33.256Z,4.80
2018-09-15T20:28:37.465Z,5.03
2018-09-15T20:30:41.632Z,6.80
2018-09-15T20:32:45.915Z,3.97
2018-09-15T20:34:50.130Z,3.43
2018-09-15T20:36:54.303Z,2.30
2018-09-15T20:38:58.504Z,3.37
2018-09-15T20:41:02.706Z,3.10
2018-09-15T20:43:06.909Z,4.43
2018-09-15T20:45:11.147Z,5.27
2018-09-15T20:47:15.343Z,3.37
2018-09-15T20:49:19.536Z,3.13
2018-09-15T20:51:23.708Z,2.57
2018-09-15T20:53:31.370Z,2.50
2018-09-15T20:55:35.602Z,3.90
2018-09-15T20:57:39.755Z,2.83
2018-09-15T20:59:44.047Z,4.23
2018-09-15T21:01:48.232Z,4.10
2018-09-15T21:03:52.406Z,3.40
2018-09-15T21:05:56.587Z,4.40
2018-09-15T21:08:00.791Z,2.43
2018-09-15T21:10:05.023Z,5.77
2018-09-15T21:12:09.159Z,3.50
2018-09-15T21:14:13.375Z,4.43
2018-09-15T21:16:17.639Z,4.10
2018-09-15T21:18:21.791Z,6.20
2018-09-15T21:20:26.055Z,4.23
2018-09-15T21:22:30.228Z,3.20
2018-09-15T21:24:34.470Z,5.87
2018-09-15T21:26:38.692Z,6.07
2018-09-15T21:28:42.851Z,5.70
2018-09-15T21:30:47.074Z,7.97
2018-09-15T21:32:51.218Z,5.20
2018-09-15T21:34:55.464Z,4.90
2018-09-15T21:36:59.664Z,3.90
2018-09-15T21:39:04.699Z,3.00
2018-09-15T21:41:08.891Z,3.30
2018-09-15T21:43:13.148Z,7.43
2018-09-15T21:45:17.359Z,4.10
2018-09-15T21:47:21.549Z,5.60
2018-09-15T21:49:25.761Z,8.07
2018-09-15T21:51:30.043Z,4.83
2018-09-15T21:53:34.251Z,3.63
2018-09-15T21:55:38.471Z,5.43
2018-09-15T21:57:42.692Z,3.10
2018-09-15T21:59:46.957Z,2.77
2018-09-15T22:01:51.206Z,4.73
2018-09-15T22:04:00.610Z,3.10
2018-09-15T22:06:05.131Z,2.43
2018-09-15T22:08:09.272Z,6.07
2018-09-15T22:10:13.466Z,3.30
2018-09-15T22:12:17.746Z,5.70
2018-09-15T22:14:21.974Z,5.03
2018-09-15T22:16:26.183Z,2.83
2018-09-15T22:18:30.396Z,2.73
2018-09-15T22:20:34.629Z,2.90
2018-09-15T22:22:38.919Z,3.47
2018-09-15T22:24:43.034Z,3.07
2018-09-15T22:26:47.269Z,2.63
2018-09-15T22:28:51.446Z,3.23
2018-09-15T22:30:55.690Z,3.60
2018-09-15T22:32:59.914Z,1.87
2018-09-15T22:35:04.111Z,2.70
2018-09-15T22:37:08.275Z,4.13
2018-09-15T22:39:12.489Z,3.70
2018-09-15T22:41:16.658Z,3.80
2018-09-15T22:43:20.888Z,4.03
2018-09-15T22:45:25.088Z,2.67
2018-09-15T22:47:29.706Z,2.43
2018-09-15T22:49:33.957Z,5.00
2018-09-15T22:51:38.142Z,6.40
2018-09-15T22:53:42.413Z,3.10
2018-09-15T22:55:46.582Z,5.40
2018-09-15T22:57:50.830Z,3.80
2018-09-15T22:59:55.054Z,3.83
2018-09-15T23:01:59.182Z,2.77
2018-09-15T23:04:06.236Z,3.37
2018-09-15T23:06:10.458Z,2.90
2018-09-15T23:08:14.661Z,3.57
2018-09-15T23:10:19.104Z,4.57
2018-09-15T23:12:23.299Z,4.60
2018-09-15T23:14:27.551Z,3.50
2018-09-15T23:16:31.878Z,4.00
2018-09-15T23:18:36.049Z,3.83
2018-09-15T23:20:40.238Z,4.07
2018-09-15T23:22:44.459Z,5.03
2018-09-15T23:24:48.745Z,4.93
2018-09-15T23:26:52.947Z,3.67
2018-09-15T23:28:57.193Z,9.67
2018-09-15T23:31:01.835Z,4.53
2018-09-15T23:33:06.581Z,4.00
2018-09-15T23:35:10.778Z,6.27
2018-09-15T23:37:15.018Z,5.07
2018-09-15T23:39:19.240Z,4.83
2018-09-15T23:41:23.444Z,2.13
2018-09-15T23:43:27.706Z,3.93
2018-09-15T23:45:31.957Z,2.00
2018-09-15T23:47:36.184Z,5.50
2018-09-15T23:49:40.428Z,3.43
2018-09-15T23:51:44.575Z,3.43
2018-09-15T23:53:48.742Z,5.07
2018-09-15T23:55:52.941Z,4.33
2018-09-15T23:57:57.098Z,3.80
